METAR Data
IDs: Format: Raw Decoded Include TAF

Data at: 1328 UTC 18 Jan 2022

KMGJ 181254Z AUTO 29011G15KT 10SM OVC044 M03/M09 A2974 RMK AO2 SLP074 T10281094